sensor_id;sensor_type;location;lat;lon;timestamp;P1;durP1;ratioP1;P2;durP2;ratioP2
37645;SDS011;23489;49.600;6.138;2024-02-26T00:02:16;2.47;;;1.38;;
37645;SDS011;23489;49.600;6.138;2024-02-26T00:04:43;1.77;;;1.30;;
37645;SDS011;23489;49.600;6.138;2024-02-26T00:07:08;1.50;;;1.27;;
37645;SDS011;23489;49.600;6.138;2024-02-26T00:09:34;1.35;;;1.23;;
37645;SDS011;23489;49.600;6.138;2024-02-26T00:12:01;0.93;;;0.90;;
37645;SDS011;23489;49.600;6.138;2024-02-26T00:14:29;1.50;;;1.40;;
37645;SDS011;23489;49.600;6.138;2024-02-26T00:16:55;1.75;;;1.30;;
37645;SDS011;23489;49.600;6.138;2024-02-26T00:19:21;3.00;;;1.50;;
37645;SDS011;23489;49.600;6.138;2024-02-26T00:21:46;2.90;;;1.60;;
37645;SDS011;23489;49.600;6.138;2024-02-26T00:24:12;1.30;;;1.20;;
37645;SDS011;23489;49.600;6.138;2024-02-26T00:26:38;1.30;;;1.20;;
37645;SDS011;23489;49.600;6.138;2024-02-26T00:29:03;2.35;;;1.33;;
37645;SDS011;23489;49.600;6.138;2024-02-26T00:31:29;0.82;;;0.82;;
37645;SDS011;23489;49.600;6.138;2024-02-26T00:33:55;2.97;;;1.35;;
37645;SDS011;23489;49.600;6.138;2024-02-26T00:36:21;3.95;;;2.05;;
37645;SDS011;23489;49.600;6.138;2024-02-26T00:38:46;1.40;;;1.30;;
37645;SDS011;23489;49.600;6.138;2024-02-26T00:41:18;1.73;;;1.48;;
37645;SDS011;23489;49.600;6.138;2024-02-26T00:43:48;1.30;;;1.20;;
37645;SDS011;23489;49.600;6.138;2024-02-26T00:46:14;1.40;;;1.30;;
37645;SDS011;23489;49.600;6.138;2024-02-26T00:48:39;2.58;;;1.30;;
37645;SDS011;23489;49.600;6.138;2024-02-26T00:51:05;1.42;;;1.20;;
37645;SDS011;23489;49.600;6.138;2024-02-26T00:53:31;1.92;;;1.30;;
37645;SDS011;23489;49.600;6.138;2024-02-26T00:55:57;2.20;;;1.50;;
37645;SDS011;23489;49.600;6.138;2024-02-26T00:58:24;1.65;;;1.35;;
37645;SDS011;23489;49.600;6.138;2024-02-26T01:00:50;1.52;;;1.27;;
37645;SDS011;23489;49.600;6.138;2024-02-26T01:03:17;1.60;;;1.20;;
37645;SDS011;23489;49.600;6.138;2024-02-26T01:05:42;1.35;;;1.25;;
37645;SDS011;23489;49.600;6.138;2024-02-26T01:08:08;2.08;;;1.38;;
37645;SDS011;23489;49.600;6.138;2024-02-26T01:10:34;1.45;;;1.20;;
37645;SDS011;23489;49.600;6.138;2024-02-26T01:13:00;1.17;;;1.02;;
37645;SDS011;23489;49.600;6.138;2024-02-26T01:15:26;2.60;;;1.60;;
37645;SDS011;23489;49.600;6.138;2024-02-26T01:17:52;1.40;;;1.30;;
37645;SDS011;23489;49.600;6.138;2024-02-26T01:20:18;1.88;;;1.30;;
37645;SDS011;23489;49.600;6.138;2024-02-26T01:22:44;1.63;;;1.13;;
37645;SDS011;23489;49.600;6.138;2024-02-26T01:25:10;2.97;;;1.50;;
37645;SDS011;23489;49.600;6.138;2024-02-26T01:27:36;1.75;;;1.17;;
37645;SDS011;23489;49.600;6.138;2024-02-26T01:30:05;2.17;;;1.27;;
37645;SDS011;23489;49.600;6.138;2024-02-26T01:32:31;2.63;;;1.27;;
37645;SDS011;23489;49.600;6.138;2024-02-26T01:34:57;1.48;;;1.20;;
37645;SDS011;23489;49.600;6.138;2024-02-26T01:37:23;1.35;;;1.25;;
37645;SDS011;23489;49.600;6.138;2024-02-26T01:39:49;1.90;;;1.40;;
37645;SDS011;23489;49.600;6.138;2024-02-26T01:42:14;1.40;;;1.10;;
37645;SDS011;23489;49.600;6.138;2024-02-26T01:44:40;1.42;;;0.95;;
37645;SDS011;23489;49.600;6.138;2024-02-26T01:47:07;1.17;;;1.08;;
37645;SDS011;23489;49.600;6.138;2024-02-26T01:49:35;1.63;;;1.10;;
37645;SDS011;23489;49.600;6.138;2024-02-26T01:52:02;1.35;;;1.20;;
37645;SDS011;23489;49.600;6.138;2024-02-26T01:54:29;0.85;;;0.85;;
37645;SDS011;23489;49.600;6.138;2024-02-26T01:56:56;0.98;;;0.93;;
37645;SDS011;23489;49.600;6.138;2024-02-26T01:59:22;0.70;;;0.70;;
37645;SDS011;23489;49.600;6.138;2024-02-26T02:01:55;0.80;;;0.80;;
37645;SDS011;23489;49.600;6.138;2024-02-26T02:09:15;0.70;;;0.70;;
37645;SDS011;23489;49.600;6.138;2024-02-26T02:11:41;1.80;;;1.00;;
37645;SDS011;23489;49.600;6.138;2024-02-26T02:14:07;1.15;;;1.00;;
37645;SDS011;23489;49.600;6.138;2024-02-26T02:16:32;3.40;;;1.10;;
37645;SDS011;23489;49.600;6.138;2024-02-26T02:18:58;1.67;;;1.17;;
37645;SDS011;23489;49.600;6.138;2024-02-26T02:21:24;1.25;;;1.15;;
37645;SDS011;23489;49.600;6.138;2024-02-26T02:23:50;2.60;;;1.52;;
37645;SDS011;23489;49.600;6.138;2024-02-26T02:26:15;1.90;;;1.30;;
37645;SDS011;23489;49.600;6.138;2024-02-26T02:28:42;1.80;;;1.45;;
37645;SDS011;23489;49.600;6.138;2024-02-26T02:31:08;1.37;;;1.27;;
37645;SDS011;23489;49.600;6.138;2024-02-26T02:33:34;1.60;;;1.30;;
37645;SDS011;23489;49.600;6.138;2024-02-26T02:36:00;1.33;;;1.23;;
37645;SDS011;23489;49.600;6.138;2024-02-26T02:38:26;1.40;;;1.20;;
37645;SDS011;23489;49.600;6.138;2024-02-26T02:40:54;1.40;;;1.10;;
37645;SDS011;23489;49.600;6.138;2024-02-26T02:43:20;1.50;;;1.40;;
37645;SDS011;23489;49.600;6.138;2024-02-26T02:45:46;1.33;;;1.23;;
37645;SDS011;23489;49.600;6.138;2024-02-26T02:48:11;1.40;;;1.30;;
37645;SDS011;23489;49.600;6.138;2024-02-26T02:50:37;1.40;;;1.30;;
37645;SDS011;23489;49.600;6.138;2024-02-26T02:53:03;1.35;;;1.25;;
37645;SDS011;23489;49.600;6.138;2024-02-26T02:55:29;1.70;;;1.45;;
37645;SDS011;23489;49.600;6.138;2024-02-26T02:57:55;1.45;;;1.35;;
37645;SDS011;23489;49.600;6.138;2024-02-26T03:00:20;1.33;;;1.23;;
37645;SDS011;23489;49.600;6.138;2024-02-26T03:02:49;2.28;;;1.30;;
37645;SDS011;23489;49.600;6.138;2024-02-26T03:05:15;1.45;;;1.35;;
37645;SDS011;23489;49.600;6.138;2024-02-26T03:07:40;2.30;;;1.38;;
37645;SDS011;23489;49.600;6.138;2024-02-26T03:10:06;1.63;;;1.52;;
37645;SDS011;23489;49.600;6.138;2024-02-26T03:12:33;1.73;;;1.50;;
37645;SDS011;23489;49.600;6.138;2024-02-26T03:14:59;3.08;;;1.80;;
37645;SDS011;23489;49.600;6.138;2024-02-26T03:17:30;1.58;;;1.48;;
37645;SDS011;23489;49.600;6.138;2024-02-26T03:19:56;1.52;;;1.42;;
37645;SDS011;23489;49.600;6.138;2024-02-26T03:22:22;1.80;;;1.70;;
37645;SDS011;23489;49.600;6.138;2024-02-26T03:24:47;2.08;;;1.60;;
37645;SDS011;23489;49.600;6.138;2024-02-26T03:27:13;2.80;;;1.55;;
37645;SDS011;23489;49.600;6.138;2024-02-26T03:29:39;1.95;;;1.73;;
37645;SDS011;23489;49.600;6.138;2024-02-26T03:32:05;4.88;;;1.83;;
37645;SDS011;23489;49.600;6.138;2024-02-26T03:34:32;2.30;;;1.70;;
37645;SDS011;23489;49.600;6.138;2024-02-26T03:37:01;1.92;;;1.50;;
37645;SDS011;23489;49.600;6.138;2024-02-26T03:39:26;2.05;;;1.85;;
37645;SDS011;23489;49.600;6.138;2024-02-26T03:41:52;1.88;;;1.65;;
37645;SDS011;23489;49.600;6.138;2024-02-26T03:44:18;2.97;;;2.00;;
37645;SDS011;23489;49.600;6.138;2024-02-26T03:46:43;2.13;;;1.83;;
37645;SDS011;23489;49.600;6.138;2024-02-26T03:49:09;2.25;;;1.92;;
37645;SDS011;23489;49.600;6.138;2024-02-26T03:51:35;2.00;;;1.77;;
37645;SDS011;23489;49.600;6.138;2024-02-26T03:54:01;3.22;;;2.05;;
37645;SDS011;23489;49.600;6.138;2024-02-26T03:56:27;2.17;;;1.75;;
37645;SDS011;23489;49.600;6.138;2024-02-26T03:58:53;2.08;;;1.60;;
37645;SDS011;23489;49.600;6.138;2024-02-26T04:03:44;2.78;;;2.50;;
37645;SDS011;23489;49.600;6.138;2024-02-26T04:06:10;2.03;;;1.83;;
37645;SDS011;23489;49.600;6.138;2024-02-26T04:13:32;2.92;;;2.63;;
37645;SDS011;23489;49.600;6.138;2024-02-26T04:15:58;2.40;;;2.17;;
37645;SDS011;23489;49.600;6.138;2024-02-26T04:18:26;1.90;;;1.70;;
37645;SDS011;23489;49.600;6.138;2024-02-26T04:20:52;1.70;;;1.60;;
37645;SDS011;23489;49.600;6.138;2024-02-26T04:23:18;2.10;;;1.88;;
37645;SDS011;23489;49.600;6.138;2024-02-26T04:25:44;2.00;;;1.65;;
37645;SDS011;23489;49.600;6.138;2024-02-26T04:28:10;2.47;;;2.15;;
37645;SDS011;23489;49.600;6.138;2024-02-26T04:30:36;2.60;;;2.10;;
37645;SDS011;23489;49.600;6.138;2024-02-26T04:33:02;1.80;;;1.70;;
37645;SDS011;23489;49.600;6.138;2024-02-26T04:35:28;1.98;;;1.80;;
37645;SDS011;23489;49.600;6.138;2024-02-26T04:37:53;2.13;;;1.92;;
37645;SDS011;23489;49.600;6.138;2024-02-26T04:40:19;3.90;;;2.20;;
37645;SDS011;23489;49.600;6.138;2024-02-26T04:42:45;2.10;;;1.90;;
37645;SDS011;23489;49.600;6.138;2024-02-26T04:45:11;3.83;;;2.10;;
37645;SDS011;23489;49.600;6.138;2024-02-26T04:47:36;2.40;;;2.03;;
37645;SDS011;23489;49.600;6.138;2024-02-26T04:50:02;2.10;;;1.90;;
37645;SDS011;23489;49.600;6.138;2024-02-26T04:52:28;2.33;;;2.13;;
37645;SDS011;23489;49.600;6.138;2024-02-26T04:54:54;3.75;;;2.10;;
37645;SDS011;23489;49.600;6.138;2024-02-26T04:57:20;2.28;;;2.08;;
37645;SDS011;23489;49.600;6.138;2024-02-26T04:59:46;1.60;;;1.50;;
37645;SDS011;23489;49.600;6.138;2024-02-26T05:02:12;2.05;;;1.90;;
37645;SDS011;23489;49.600;6.138;2024-02-26T05:04:38;2.00;;;1.70;;
37645;SDS011;23489;49.600;6.138;2024-02-26T05:07:04;2.17;;;1.98;;
37645;SDS011;23489;49.600;6.138;2024-02-26T05:09:30;1.83;;;1.45;;
37645;SDS011;23489;49.600;6.138;2024-02-26T05:11:56;2.00;;;1.63;;
37645;SDS011;23489;49.600;6.138;2024-02-26T05:14:22;1.98;;;1.50;;
37645;SDS011;23489;49.600;6.138;2024-02-26T05:16:48;1.60;;;1.50;;
37645;SDS011;23489;49.600;6.138;2024-02-26T05:19:13;1.50;;;1.40;;
37645;SDS011;23489;49.600;6.138;2024-02-26T05:21:39;1.65;;;1.50;;
37645;SDS011;23489;49.600;6.138;2024-02-26T05:24:05;1.92;;;1.50;;
37645;SDS011;23489;49.600;6.138;2024-02-26T05:26:31;2.67;;;1.60;;
37645;SDS011;23489;49.600;6.138;2024-02-26T05:28:57;1.65;;;1.20;;
37645;SDS011;23489;49.600;6.138;2024-02-26T05:31:24;1.23;;;1.13;;
37645;SDS011;23489;49.600;6.138;2024-02-26T05:33:51;1.63;;;1.40;;
37645;SDS011;23489;49.600;6.138;2024-02-26T05:36:17;1.30;;;1.02;;
37645;SDS011;23489;49.600;6.138;2024-02-26T05:38:44;2.95;;;1.17;;
37645;SDS011;23489;49.600;6.138;2024-02-26T05:41:11;1.67;;;1.23;;
37645;SDS011;23489;49.600;6.138;2024-02-26T05:43:37;1.05;;;0.95;;
37645;SDS011;23489;49.600;6.138;2024-02-26T05:46:03;0.77;;;0.77;;
37645;SDS011;23489;49.600;6.138;2024-02-26T05:48:28;1.00;;;0.90;;
37645;SDS011;23489;49.600;6.138;2024-02-26T05:50:54;0.80;;;0.80;;
37645;SDS011;23489;49.600;6.138;2024-02-26T05:53:20;1.38;;;0.90;;
37645;SDS011;23489;49.600;6.138;2024-02-26T05:55:46;0.75;;;0.63;;
37645;SDS011;23489;49.600;6.138;2024-02-26T05:58:11;1.73;;;1.05;;
37645;SDS011;23489;49.600;6.138;2024-02-26T06:00:37;1.15;;;0.90;;
37645;SDS011;23489;49.600;6.138;2024-02-26T06:03:03;1.00;;;0.85;;
37645;SDS011;23489;49.600;6.138;2024-02-26T06:05:28;1.58;;;1.00;;
37645;SDS011;23489;49.600;6.138;2024-02-26T06:07:54;2.25;;;1.20;;
37645;SDS011;23489;49.600;6.138;2024-02-26T06:10:20;2.40;;;1.40;;
37645;SDS011;23489;49.600;6.138;2024-02-26T06:12:46;0.98;;;0.93;;
37645;SDS011;23489;49.600;6.138;2024-02-26T06:15:12;1.42;;;1.00;;
37645;SDS011;23489;49.600;6.138;2024-02-26T06:17:38;1.30;;;1.10;;
37645;SDS011;23489;49.600;6.138;2024-02-26T06:20:04;2.03;;;1.30;;
37645;SDS011;23489;49.600;6.138;2024-02-26T06:22:31;1.30;;;1.20;;
37645;SDS011;23489;49.600;6.138;2024-02-26T06:24:57;1.30;;;1.10;;
37645;SDS011;23489;49.600;6.138;2024-02-26T06:27:23;1.52;;;1.10;;
37645;SDS011;23489;49.600;6.138;2024-02-26T06:29:49;2.00;;;1.20;;
37645;SDS011;23489;49.600;6.138;2024-02-26T06:32:15;1.10;;;1.02;;
37645;SDS011;23489;49.600;6.138;2024-02-26T06:34:41;1.77;;;1.13;;
37645;SDS011;23489;49.600;6.138;2024-02-26T06:37:07;1.58;;;1.48;;
37645;SDS011;23489;49.600;6.138;2024-02-26T06:39:33;3.10;;;1.20;;
37645;SDS011;23489;49.600;6.138;2024-02-26T06:41:59;2.72;;;1.48;;
37645;SDS011;23489;49.600;6.138;2024-02-26T06:44:27;1.50;;;1.40;;
37645;SDS011;23489;49.600;6.138;2024-02-26T06:46:57;2.88;;;1.38;;
37645;SDS011;23489;49.600;6.138;2024-02-26T06:49:24;1.83;;;1.45;;
37645;SDS011;23489;49.600;6.138;2024-02-26T06:51:50;1.33;;;1.23;;
37645;SDS011;23489;49.600;6.138;2024-02-26T06:54:16;1.60;;;1.20;;
37645;SDS011;23489;49.600;6.138;2024-02-26T06:56:41;1.42;;;1.33;;
37645;SDS011;23489;49.600;6.138;2024-02-26T06:59:07;2.13;;;1.30;;
37645;SDS011;23489;49.600;6.138;2024-02-26T07:01:33;1.48;;;1.30;;
37645;SDS011;23489;49.600;6.138;2024-02-26T07:03:58;1.60;;;1.42;;
37645;SDS011;23489;49.600;6.138;2024-02-26T07:06:24;1.50;;;1.40;;
37645;SDS011;23489;49.600;6.138;2024-02-26T07:08:50;1.52;;;1.42;;
37645;SDS011;23489;49.600;6.138;2024-02-26T07:11:16;1.70;;;1.60;;
37645;SDS011;23489;49.600;6.138;2024-02-26T07:13:41;1.70;;;1.33;;
37645;SDS011;23489;49.600;6.138;2024-02-26T07:16:09;2.13;;;1.50;;
37645;SDS011;23489;49.600;6.138;2024-02-26T07:18:35;2.08;;;1.70;;
37645;SDS011;23489;49.600;6.138;2024-02-26T07:21:01;2.55;;;1.85;;
37645;SDS011;23489;49.600;6.138;2024-02-26T07:23:28;1.80;;;1.60;;
37645;SDS011;23489;49.600;6.138;2024-02-26T07:25:54;2.88;;;1.77;;
37645;SDS011;23489;49.600;6.138;2024-02-26T07:28:19;2.80;;;2.20;;
37645;SDS011;23489;49.600;6.138;2024-02-26T07:30:45;2.30;;;1.70;;
37645;SDS011;23489;49.600;6.138;2024-02-26T07:33:11;1.90;;;1.80;;
37645;SDS011;23489;49.600;6.138;2024-02-26T07:35:37;2.78;;;2.03;;
37645;SDS011;23489;49.600;6.138;2024-02-26T07:38:04;2.33;;;2.10;;
37645;SDS011;23489;49.600;6.138;2024-02-26T07:40:30;2.50;;;2.00;;
37645;SDS011;23489;49.600;6.138;2024-02-26T07:42:56;2.65;;;2.08;;
37645;SDS011;23489;49.600;6.138;2024-02-26T07:45:22;2.72;;;1.80;;
37645;SDS011;23489;49.600;6.138;2024-02-26T07:47:48;2.80;;;1.80;;
37645;SDS011;23489;49.600;6.138;2024-02-26T07:50:14;3.47;;;1.63;;
37645;SDS011;23489;49.600;6.138;2024-02-26T07:52:39;2.20;;;1.88;;
37645;SDS011;23489;49.600;6.138;2024-02-26T07:55:06;1.63;;;1.52;;
37645;SDS011;23489;49.600;6.138;2024-02-26T07:57:32;2.33;;;1.85;;
37645;SDS011;23489;49.600;6.138;2024-02-26T07:59:59;2.45;;;2.10;;
37645;SDS011;23489;49.600;6.138;2024-02-26T08:02:25;1.70;;;1.60;;
37645;SDS011;23489;49.600;6.138;2024-02-26T08:04:50;4.40;;;1.98;;
37645;SDS011;23489;49.600;6.138;2024-02-26T08:07:16;2.05;;;1.83;;
37645;SDS011;23489;49.600;6.138;2024-02-26T08:09:42;1.83;;;1.67;;
37645;SDS011;23489;49.600;6.138;2024-02-26T08:12:08;2.65;;;1.80;;
37645;SDS011;23489;49.600;6.138;2024-02-26T08:14:33;1.80;;;1.65;;
37645;SDS011;23489;49.600;6.138;2024-02-26T08:21:51;1.40;;;1.30;;
37645;SDS011;23489;49.600;6.138;2024-02-26T08:24:16;2.08;;;1.77;;
37645;SDS011;23489;49.600;6.138;2024-02-26T08:26:42;2.47;;;1.75;;
37645;SDS011;23489;49.600;6.138;2024-02-26T08:29:08;1.70;;;1.60;;
37645;SDS011;23489;49.600;6.138;2024-02-26T08:31:34;2.53;;;1.70;;
37645;SDS011;23489;49.600;6.138;2024-02-26T08:34:02;1.83;;;1.63;;
37645;SDS011;23489;49.600;6.138;2024-02-26T08:36:29;2.85;;;1.70;;
37645;SDS011;23489;49.600;6.138;2024-02-26T08:38:56;2.40;;;1.80;;
37645;SDS011;23489;49.600;6.138;2024-02-26T08:41:22;2.70;;;1.98;;
37645;SDS011;23489;49.600;6.138;2024-02-26T08:43:48;2.65;;;2.15;;
37645;SDS011;23489;49.600;6.138;2024-02-26T08:46:13;2.42;;;2.00;;
37645;SDS011;23489;49.600;6.138;2024-02-26T08:48:39;2.30;;;2.10;;
37645;SDS011;23489;49.600;6.138;2024-02-26T08:51:06;2.65;;;2.00;;
37645;SDS011;23489;49.600;6.138;2024-02-26T08:53:32;2.63;;;2.22;;
37645;SDS011;23489;49.600;6.138;2024-02-26T08:55:58;2.10;;;1.90;;
37645;SDS011;23489;49.600;6.138;2024-02-26T08:58:24;2.50;;;2.10;;
37645;SDS011;23489;49.600;6.138;2024-02-26T09:00:49;3.55;;;2.70;;
37645;SDS011;23489;49.600;6.138;2024-02-26T09:03:15;3.20;;;2.15;;
37645;SDS011;23489;49.600;6.138;2024-02-26T09:05:42;3.25;;;2.60;;
37645;SDS011;23489;49.600;6.138;2024-02-26T09:08:08;2.38;;;2.17;;
37645;SDS011;23489;49.600;6.138;2024-02-26T09:10:34;3.38;;;2.50;;
37645;SDS011;23489;49.600;6.138;2024-02-26T11:19:59;2.88;;;2.60;;
37645;SDS011;23489;49.600;6.138;2024-02-26T11:27:21;3.00;;;2.13;;
37645;SDS011;23489;49.600;6.138;2024-02-26T11:29:51;2.22;;;2.03;;
37645;SDS011;23489;49.600;6.138;2024-02-26T11:32:19;2.08;;;1.88;;
37645;SDS011;23489;49.600;6.138;2024-02-26T11:34:44;2.38;;;2.17;;
37645;SDS011;23489;49.600;6.138;2024-02-26T11:37:11;2.85;;;2.00;;
37645;SDS011;23489;49.600;6.138;2024-02-26T11:52:00;2.17;;;1.98;;
37645;SDS011;23489;49.600;6.138;2024-02-26T12:02:12;2.67;;;2.40;;
37645;SDS011;23489;49.600;6.138;2024-02-26T12:05:08;2.00;;;1.80;;
37645;SDS011;23489;49.600;6.138;2024-02-26T12:07:39;1.80;;;1.70;;
37645;SDS011;23489;49.600;6.138;2024-02-26T12:10:15;2.42;;;2.22;;
37645;SDS011;23489;49.600;6.138;2024-02-26T12:13:10;2.40;;;2.20;;
37645;SDS011;23489;49.600;6.138;2024-02-26T12:15:38;2.72;;;2.50;;
37645;SDS011;23489;49.600;6.138;2024-02-26T12:18:09;2.80;;;2.33;;
37645;SDS011;23489;49.600;6.138;2024-02-26T12:20:40;2.70;;;2.50;;
37645;SDS011;23489;49.600;6.138;2024-02-26T12:23:06;3.35;;;2.45;;
37645;SDS011;23489;49.600;6.138;2024-02-26T12:27:58;2.33;;;2.13;;
37645;SDS011;23489;49.600;6.138;2024-02-26T12:30:25;2.78;;;2.17;;
37645;SDS011;23489;49.600;6.138;2024-02-26T12:32:52;2.58;;;2.30;;
37645;SDS011;23489;49.600;6.138;2024-02-26T12:35:22;2.53;;;2.20;;
37645;SDS011;23489;49.600;6.138;2024-02-26T12:37:54;2.28;;;2.08;;
37645;SDS011;23489;49.600;6.138;2024-02-26T12:40:20;2.85;;;2.40;;
37645;SDS011;23489;49.600;6.138;2024-02-26T12:42:46;2.58;;;2.38;;
37645;SDS011;23489;49.600;6.138;2024-02-26T12:45:13;3.33;;;2.60;;
37645;SDS011;23489;49.600;6.138;2024-02-26T12:47:41;2.95;;;2.40;;
37645;SDS011;23489;49.600;6.138;2024-02-26T12:50:08;2.83;;;2.60;;
37645;SDS011;23489;49.600;6.138;2024-02-26T12:52:35;3.25;;;2.28;;
37645;SDS011;23489;49.600;6.138;2024-02-26T12:55:06;2.70;;;2.22;;
37645;SDS011;23489;49.600;6.138;2024-02-26T12:57:36;4.25;;;2.33;;
37645;SDS011;23489;49.600;6.138;2024-02-26T13:02:35;2.75;;;1.90;;
37645;SDS011;23489;49.600;6.138;2024-02-26T13:05:03;2.20;;;2.00;;
37645;SDS011;23489;49.600;6.138;2024-02-26T13:07:29;2.40;;;1.95;;
37645;SDS011;23489;49.600;6.138;2024-02-26T13:09:55;2.63;;;2.35;;
37645;SDS011;23489;49.600;6.138;2024-02-26T13:12:21;2.55;;;2.35;;
37645;SDS011;23489;49.600;6.138;2024-02-26T13:14:47;2.17;;;1.98;;
37645;SDS011;23489;49.600;6.138;2024-02-26T13:17:12;3.35;;;2.10;;
37645;SDS011;23489;49.600;6.138;2024-02-26T13:19:48;2.33;;;1.98;;
37645;SDS011;23489;49.600;6.138;2024-02-26T13:22:14;2.85;;;1.92;;
37645;SDS011;23489;49.600;6.138;2024-02-26T13:24:40;2.25;;;1.67;;
37645;SDS011;23489;49.600;6.138;2024-02-26T13:27:06;2.88;;;1.90;;
37645;SDS011;23489;49.600;6.138;2024-02-26T13:29:32;5.30;;;1.85;;
37645;SDS011;23489;49.600;6.138;2024-02-26T13:31:58;2.55;;;1.90;;
37645;SDS011;23489;49.600;6.138;2024-02-26T13:34:24;1.98;;;1.70;;
37645;SDS011;23489;49.600;6.138;2024-02-26T13:36:52;3.10;;;1.70;;
37645;SDS011;23489;49.600;6.138;2024-02-26T13:39:25;2.85;;;1.92;;
37645;SDS011;23489;49.600;6.138;2024-02-26T13:41:52;1.42;;;1.30;;
37645;SDS011;23489;49.600;6.138;2024-02-26T13:44:19;2.03;;;1.60;;
37645;SDS011;23489;49.600;6.138;2024-02-26T13:46:46;2.72;;;1.70;;
37645;SDS011;23489;49.600;6.138;2024-02-26T13:49:12;4.00;;;1.50;;
37645;SDS011;23489;49.600;6.138;2024-02-26T13:51:38;2.28;;;1.85;;
37645;SDS011;23489;49.600;6.138;2024-02-26T13:54:04;4.05;;;1.73;;
37645;SDS011;23489;49.600;6.138;2024-02-26T13:56:31;1.95;;;1.75;;
37645;SDS011;23489;49.600;6.138;2024-02-26T13:58:57;3.85;;;1.70;;
37645;SDS011;23489;49.600;6.138;2024-02-26T14:01:23;1.67;;;1.55;;
37645;SDS011;23489;49.600;6.138;2024-02-26T14:03:49;1.88;;;1.58;;
37645;SDS011;23489;49.600;6.138;2024-02-26T14:06:16;4.93;;;1.75;;
37645;SDS011;23489;49.600;6.138;2024-02-26T14:08:42;4.22;;;1.90;;
37645;SDS011;23489;49.600;6.138;2024-02-26T14:11:07;2.83;;;1.85;;
37645;SDS011;23489;49.600;6.138;2024-02-26T14:13:33;3.90;;;2.03;;
37645;SDS011;23489;49.600;6.138;2024-02-26T14:15:59;3.28;;;2.00;;
37645;SDS011;23489;49.600;6.138;2024-02-26T14:18:25;4.72;;;2.28;;
37645;SDS011;23489;49.600;6.138;2024-02-26T14:20:52;2.45;;;2.10;;
37645;SDS011;23489;49.600;6.138;2024-02-26T14:23:17;2.97;;;2.47;;
37645;SDS011;23489;49.600;6.138;2024-02-26T14:25:43;4.88;;;2.13;;
37645;SDS011;23489;49.600;6.138;2024-02-26T14:28:08;2.97;;;2.53;;
37645;SDS011;23489;49.600;6.138;2024-02-26T14:30:34;4.43;;;2.90;;
37645;SDS011;23489;49.600;6.138;2024-02-26T14:33:00;4.80;;;2.80;;
37645;SDS011;23489;49.600;6.138;2024-02-26T14:35:26;4.82;;;2.33;;
37645;SDS011;23489;49.600;6.138;2024-02-26T14:37:51;3.70;;;2.55;;
37645;SDS011;23489;49.600;6.138;2024-02-26T14:40:17;5.15;;;2.60;;
37645;SDS011;23489;49.600;6.138;2024-02-26T14:42:44;4.80;;;2.38;;
37645;SDS011;23489;49.600;6.138;2024-02-26T14:45:10;2.72;;;2.10;;
37645;SDS011;23489;49.600;6.138;2024-02-26T14:47:36;2.78;;;2.03;;
37645;SDS011;23489;49.600;6.138;2024-02-26T14:50:02;2.60;;;2.40;;
37645;SDS011;23489;49.600;6.138;2024-02-26T14:52:28;2.75;;;2.03;;
37645;SDS011;23489;49.600;6.138;2024-02-26T14:54:54;2.65;;;2.00;;
37645;SDS011;23489;49.600;6.138;2024-02-26T14:57:20;2.20;;;1.90;;
37645;SDS011;23489;49.600;6.138;2024-02-26T14:59:45;4.20;;;2.30;;
37645;SDS011;23489;49.600;6.138;2024-02-26T15:02:12;2.20;;;1.80;;
37645;SDS011;23489;49.600;6.138;2024-02-26T15:04:38;4.60;;;1.95;;
37645;SDS011;23489;49.600;6.138;2024-02-26T15:07:04;3.15;;;1.90;;
37645;SDS011;23489;49.600;6.138;2024-02-26T15:09:30;1.92;;;1.75;;
37645;SDS011;23489;49.600;6.138;2024-02-26T15:11:56;2.10;;;1.60;;
37645;SDS011;23489;49.600;6.138;2024-02-26T15:14:24;3.03;;;1.77;;
37645;SDS011;23489;49.600;6.138;2024-02-26T15:16:51;2.75;;;1.80;;
37645;SDS011;23489;49.600;6.138;2024-02-26T15:19:17;2.20;;;1.80;;
37645;SDS011;23489;49.600;6.138;2024-02-26T15:21:44;2.70;;;1.92;;
37645;SDS011;23489;49.600;6.138;2024-02-26T15:24:10;4.60;;;2.00;;
37645;SDS011;23489;49.600;6.138;2024-02-26T15:26:36;2.78;;;1.75;;
37645;SDS011;23489;49.600;6.138;2024-02-26T15:29:03;3.88;;;1.83;;
37645;SDS011;23489;49.600;6.138;2024-02-26T15:31:29;1.75;;;1.60;;
37645;SDS011;23489;49.600;6.138;2024-02-26T15:33:56;3.45;;;1.70;;
37645;SDS011;23489;49.600;6.138;2024-02-26T15:36:21;2.67;;;1.73;;
37645;SDS011;23489;49.600;6.138;2024-02-26T15:38:47;4.45;;;1.70;;
37645;SDS011;23489;49.600;6.138;2024-02-26T15:41:13;4.10;;;1.65;;
37645;SDS011;23489;49.600;6.138;2024-02-26T15:43:39;4.25;;;1.63;;
37645;SDS011;23489;49.600;6.138;2024-02-26T15:46:05;2.42;;;1.50;;
37645;SDS011;23489;49.600;6.138;2024-02-26T15:48:31;1.65;;;1.25;;
37645;SDS011;23489;49.600;6.138;2024-02-26T16:12:55;1.25;;;1.15;;
37645;SDS011;23489;49.600;6.138;2024-02-26T16:15:24;1.55;;;1.40;;
37645;SDS011;23489;49.600;6.138;2024-02-26T16:17:51;2.10;;;1.20;;
37645;SDS011;23489;49.600;6.138;2024-02-26T16:20:21;2.65;;;1.15;;
37645;SDS011;23489;49.600;6.138;2024-02-26T16:22:49;3.08;;;1.33;;
37645;SDS011;23489;49.600;6.138;2024-02-26T16:25:16;2.38;;;1.23;;
37645;SDS011;23489;49.600;6.138;2024-02-26T16:27:43;1.95;;;1.42;;
37645;SDS011;23489;49.600;6.138;2024-02-26T16:30:09;2.67;;;1.25;;
37645;SDS011;23489;49.600;6.138;2024-02-26T16:32:35;2.40;;;1.50;;
37645;SDS011;23489;49.600;6.138;2024-02-26T16:35:05;2.15;;;1.50;;
37645;SDS011;23489;49.600;6.138;2024-02-26T16:37:32;1.73;;;1.60;;
37645;SDS011;23489;49.600;6.138;2024-02-26T16:39:58;2.08;;;1.40;;
37645;SDS011;23489;49.600;6.138;2024-02-26T16:42:25;1.67;;;1.52;;
37645;SDS011;23489;49.600;6.138;2024-02-26T16:44:51;1.85;;;1.60;;
37645;SDS011;23489;49.600;6.138;2024-02-26T16:47:17;2.38;;;1.50;;
37645;SDS011;23489;49.600;6.138;2024-02-26T16:54:36;2.05;;;1.65;;
37645;SDS011;23489;49.600;6.138;2024-02-26T16:57:02;2.13;;;1.50;;
37645;SDS011;23489;49.600;6.138;2024-02-26T16:59:28;1.60;;;1.50;;
37645;SDS011;23489;49.600;6.138;2024-02-26T17:01:54;2.47;;;1.60;;
37645;SDS011;23489;49.600;6.138;2024-02-26T17:04:21;2.05;;;1.77;;
37645;SDS011;23489;49.600;6.138;2024-02-26T17:06:47;2.63;;;1.90;;
37645;SDS011;23489;49.600;6.138;2024-02-26T17:09:14;1.95;;;1.70;;
37645;SDS011;23489;49.600;6.138;2024-02-26T17:11:40;2.65;;;1.83;;
37645;SDS011;23489;49.600;6.138;2024-02-26T17:16:32;2.10;;;1.88;;
37645;SDS011;23489;49.600;6.138;2024-02-26T17:18:58;2.85;;;1.70;;
37645;SDS011;23489;49.600;6.138;2024-02-26T17:21:24;2.42;;;1.77;;
37645;SDS011;23489;49.600;6.138;2024-02-26T17:23:50;1.98;;;1.83;;
37645;SDS011;23489;49.600;6.138;2024-02-26T17:26:16;2.08;;;1.88;;
37645;SDS011;23489;49.600;6.138;2024-02-26T17:28:46;3.67;;;2.00;;
37645;SDS011;23489;49.600;6.138;2024-02-26T17:31:12;3.15;;;2.08;;
37645;SDS011;23489;49.600;6.138;2024-02-26T17:33:38;3.05;;;2.47;;
37645;SDS011;23489;49.600;6.138;2024-02-26T17:36:04;2.25;;;1.95;;
37645;SDS011;23489;49.600;6.138;2024-02-26T17:38:30;2.53;;;1.98;;
37645;SDS011;23489;49.600;6.138;2024-02-26T17:40:56;1.95;;;1.85;;
37645;SDS011;23489;49.600;6.138;2024-02-26T17:43:21;2.55;;;2.13;;
37645;SDS011;23489;49.600;6.138;2024-02-26T17:45:47;2.28;;;2.08;;
37645;SDS011;23489;49.600;6.138;2024-02-26T17:48:13;2.85;;;2.22;;
37645;SDS011;23489;49.600;6.138;2024-02-26T17:50:39;2.55;;;2.13;;
37645;SDS011;23489;49.600;6.138;2024-02-26T17:53:05;3.88;;;2.47;;
37645;SDS011;23489;49.600;6.138;2024-02-26T18:10:08;3.10;;;2.58;;
37645;SDS011;23489;49.600;6.138;2024-02-26T18:12:37;3.67;;;2.80;;
37645;SDS011;23489;49.600;6.138;2024-02-26T18:15:05;4.32;;;3.03;;
37645;SDS011;23489;49.600;6.138;2024-02-26T18:17:35;4.38;;;3.20;;
37645;SDS011;23489;49.600;6.138;2024-02-26T18:20:02;2.88;;;2.58;;
37645;SDS011;23489;49.600;6.138;2024-02-26T18:22:32;4.10;;;3.17;;